Parkland Airport

CPL6 · Alberta, Canada

Storia di METAR CPL6 · Parkland Airport

Di seguito sono riportati i METAR degli ultimi giorni. Seleziona un anno per sfogliare i METAR più vecchi, dall'anno 2007 in poi.

28 novembre 2022

Tempo Codice Tempo metereologico Temp. Vista Base nuvolosa Vento METAR/SPECI
03:30
I
-11 °C 3 mi 3.000 ft 310° 310° 20 - 26 kt SPECI CZVL 281030Z AUTO 31020G26KT 3SM -SN OVC030 M11/M13 A2986 RMK SLP161
04:34
V
-11 °C 5 mi 3.400 ft 310° 310° 17 kt METAR CZVL 281134Z AUTO 31017KT 5SM -SN OVC034 M11/M13 A2986 RMK SLP164
04:25
V
-11 °C 6 mi 3.400 ft 300° 300° 13 - 20 kt METAR CZVL 281125Z AUTO 30013G20KT 6SM -SN OVC034 M11/M13 A2986 RMK SLP164
04:00
I
-11 °C 3 mi 3.400 ft 300° 300° 14 - 20 kt METAR CZVL 281100Z AUTO 30014G20KT 3SM -SN OVC034 M11/M13 A2986 RMK SLP156
03:30
I
-11 °C 3 mi 3.000 ft 310° 310° 20 - 26 kt METAR CZVL 281030Z AUTO 31020G26KT 3SM -SN OVC030 M11/M13 A2986 RMK SLP161
03:17
I
-11 °C 2 mi 2.600 ft 310° 310° 14 - 25 kt METAR CZVL 281017Z AUTO 31014G25KT 2SM -SN OVC026 M11/M13 A2985 RMK SLP158
03:00
I
-11 °C 2 mi 2.200 ft 310° 310° 16 - 24 kt METAR CZVL 281000Z AUTO 31016G24KT 2SM -SN OVC022 M11/M13 A2985 RMK SLP151
02:49
I
-11 °C 2¼ mi 2.400 ft 310° 310° 16 - 23 kt SPECI CZVL 280949Z AUTO 31016G23KT 2 1/4SM -SN OVC024 M11/M13 A2984 RMK VIS VRB 1 1/2-3 SLP156
02:43
I
-11 °C 3 mi 2.400 ft 310° 310° 16 - 22 kt METAR CZVL 280943Z AUTO 31016G22KT 3SM -SN OVC024 M11/M13 A2984 RMK SLP156
02:00
I
-11 °C 3 mi 3.200 ft 320° 320° 21 - 26 kt METAR CZVL 280900Z AUTO 32021G26KT 3SM -SN OVC032 M11/M13 A2982 RMK SLP142
01:00
M
-10 °C 4 mi 3.600 ft 320° 320° 20 - 26 kt METAR CZVL 280800Z AUTO 32020G26KT 4SM -SN OVC036 M10/M13 A2981 RMK SLP136
00:00
I
-10 °C 3 mi 3.600 ft 320° 320° 19 - 28 kt METAR CZVL 280700Z AUTO 32019G28KT 3SM -SN OVC036 M10/M12 A2980 RMK SLP133

27 novembre 2022

Tempo Codice Tempo metereologico Temp. Vista Base nuvolosa Vento METAR/SPECI
23:01
V
-9 °C 5 mi 3.800 ft 310° 310° 17 - 27 kt METAR CZVL 280601Z AUTO 31017G27KT 5SM -SN OVC038 M09/M12 A2978 RMK SLP133
22:14
V
-9 °C 9 mi 4.500 ft 320° 320° 19 - 26 kt METAR CZVL 280514Z AUTO 32019G26KT 9SM -SN FEW029 BKN045 BKN055 M09/M13 A2977 RMK SLP126
22:00
V
-9 °C 9 mi 4.300 ft 310° 310° 21 - 26 kt METAR CZVL 280500Z AUTO 31021G26KT 9SM BKN043 M09/M13 A2976 RMK SLP116
21:00
V
-8 °C 9 mi 3.100 ft 310° 310° 19 - 28 kt METAR CZVL 280400Z AUTO 31019G28KT 9SM OVC031 M08/M13 A2974 RMK SLP110
20:00
V
-8 °C 9 mi 3.100 ft 320° 320° 22 kt METAR CZVL 280300Z AUTO 32022KT 9SM FEW025 BKN031 OVC050 M08/M13 A2973 RMK SLP104
19:00
V
-7 °C 9 mi 4.200 ft 330° 330° 21 - 28 kt METAR CZVL 280200Z AUTO 33021G28KT 9SM OVC042 M07/M12 A2970 RMK SLP093
18:32
V
-7 °C 9 mi 3.100 ft 330° 330° 23 - 31 kt METAR CZVL 280132Z AUTO 33023G31KT 9SM BKN031 OVC040 M07/M12 A2968 RMK SLP091
18:00
V
-6 °C 9 mi 3.300 ft 320° 320° 21 - 26 kt METAR CZVL 280100Z AUTO 32021G26KT 9SM -SN OVC033 M06/M10 A2966 RMK SLP078
17:35
V
-6 °C 9 mi 3.300 ft 320° 320° 17 - 22 kt METAR CZVL 280035Z AUTO 32017G22KT 9SM -SN OVC033 M06/M11 A2964 RMK SLP077
17:00
V
-5 °C 9 mi 3.300 ft 310° 310° 14 - 27 kt METAR CZVL 280000Z AUTO 31014G27KT 9SM OVC033 M05/M11 A2963 RMK SLP067
16:00
V
-5 °C 9 mi 3.300 ft 320° 320° 15 - 24 kt METAR CZVL 272300Z AUTO 32015G24KT 9SM BKN033 BKN110 M05/M10 A2958 RMK SLP051
15:00
V
-4 °C 9 mi - 310° 310° 15 - 27 kt METAR CZVL 272200Z AUTO 31015G27KT 9SM FEW035 M04/M10 A2955 RMK SLP036
14:00
V
-2 °C 9 mi - 310° 310° 17 - 23 kt METAR CZVL 272100Z AUTO 31017G23KT 9SM FEW035 M02/M09 A2951 RMK SLP022
13:00
V
-1 °C 9 mi 12.000 ft 300° 300° 17 - 24 kt METAR CZVL 272000Z AUTO 30017G24KT 9SM BKN120 M01/M07 A2949 RMK SLP013
12:00
V
0 °C 9 mi - 310° 310° 12 - 25 kt METAR CZVL 271900Z AUTO 31012G25KT 9SM SCT120 M00/M08 A2949 RMK SLP012
11:00
V
0 °C 9 mi 10.000 ft 320° 320° 18 kt METAR CZVL 271800Z AUTO 32018KT 9SM BKN100 BKN120 00/M09 A2946 RMK SLP003
10:00
V
0 °C 9 mi 9.600 ft 310° 310° 12 - 20 kt METAR CZVL 271700Z AUTO 31012G20KT 9SM BKN096 BKN110 M00/M08 A2945 RMK SLP000
09:00
V
0 °C 9 mi 10.000 ft 310° 310° 13 - 20 kt METAR CZVL 271600Z AUTO 31013G20KT 9SM SCT039 OVC100 00/M07 A2944 RMK SLP994
08:00
V
0 °C 9 mi 10.000 ft 290° 290° 11 kt METAR CZVL 271500Z AUTO 29011KT 9SM OVC100 00/M05 A2942 RMK SLP990
07:00
V
0 °C 9 mi 10.000 ft 290° 290° 9 kt METAR CZVL 271400Z AUTO 29009KT 9SM BKN100 BKN120 OVC200 00/M03 A2940 RMK SLP982
06:00
V
0 °C 9 mi - 300° 300° 9 kt METAR CZVL 271300Z AUTO 30009KT 9SM SCT086 00/M04 A2938 RMK SLP974
05:00
V
1 °C 9 mi - 280° 280° 6 kt METAR CZVL 271200Z AUTO 28006KT 9SM FEW130 01/M06 A2937 RMK SLP971
04:00
V
1 °C 9 mi 18.000 ft 290° 290° 4 kt METAR CZVL 271100Z AUTO 29004KT 9SM SCT091 BKN180 01/M06 A2937 RMK SLP971
03:00
V
2 °C 9 mi 11.000 ft 280° 280° 4 kt METAR CZVL 271000Z AUTO 28004KT 220V310 9SM OVC110 02/M05 A2938 RMK SLP972
02:00
V
3 °C 9 mi 11.000 ft 210° 210° 9 kt METAR CZVL 270900Z AUTO 21009KT 9SM OVC110 03/M06 A2937 RMK SLP968
01:00
V
3 °C 9 mi 11.000 ft 210° 210° 9 kt METAR CZVL 270800Z AUTO 21009KT 9SM OVC110 03/M05 A2938 RMK SLP972
00:00
V
2 °C 9 mi 11.000 ft 200° 200° 9 kt METAR CZVL 270700Z AUTO 20009KT 9SM SCT096 OVC110 02/M05 A2939 RMK SLP977

26 novembre 2022

Tempo Codice Tempo metereologico Temp. Vista Base nuvolosa Vento METAR/SPECI
23:00
V
3 °C 9 mi 9.100 ft 210° 210° 10 kt METAR CZVL 270600Z AUTO 21010KT 9SM OVC091 03/M05 A2943 RMK SLP990
22:00
V
4 °C 9 mi 9.100 ft 190° 190° 9 kt METAR CZVL 270500Z AUTO 19009KT 9SM BKN091 BKN110 04/M05 A2945 RMK SLP998
21:00
V
4 °C 9 mi 9.100 ft 240° 240° 12 - 18 kt METAR CZVL 270400Z AUTO 24012G18KT 9SM BKN091 OVC120 04/M06 A2948 RMK SLP011
20:00
V
2 °C 9 mi 10.000 ft 190° 190° 12 kt METAR CZVL 270300Z AUTO 19012KT 9SM BKN100 BKN120 02/M05 A2951 RMK PRESFR SLP023
19:00
V
2 °C 9 mi - 200° 200° 13 kt METAR CZVL 270200Z AUTO 20013KT 9SM FEW100 SCT120 02/M04 A2956 RMK SLP036
18:00
V
3 °C 9 mi 9.100 ft 200° 200° 13 kt METAR CZVL 270100Z AUTO 20013KT 9SM BKN091 OVC110 03/M04 A2958 RMK SLP045
17:00
V
3 °C 9 mi 8.600 ft 190° 190° 11 - 16 kt METAR CZVL 270000Z AUTO 19011G16KT 9SM OVC086 03/M04 A2963 RMK SLP060
16:00
V
4 °C 9 mi 8.100 ft 210° 210° 12 kt METAR CZVL 262300Z AUTO 21012KT 9SM OVC081 04/M05 A2967 RMK SLP072
15:00
V
3 °C 9 mi 9.100 ft 210° 210° 10 kt METAR CZVL 262200Z AUTO 21010KT 9SM BKN091 BKN120 03/M05 A2969 RMK SLP083
14:00
V
3 °C 9 mi - 220° 220° 12 kt METAR CZVL 262100Z AUTO 22012KT 9SM CLR 03/M05 A2972 RMK SLP091
13:00
V
2 °C 9 mi - 200° 200° 11 kt METAR CZVL 262000Z AUTO 20011KT 9SM CLR 02/M05 A2974 RMK SLP100
12:00
V
3 °C 9 mi 9.100 ft 210° 210° 10 kt METAR CZVL 261900Z AUTO 21010KT 9SM BKN091 03/M05 A2978 RMK SLP110
11:00
V
1 °C 9 mi - 200° 200° 6 kt METAR CZVL 261800Z AUTO 20006KT 9SM CLR 01/M06 A2981 RMK SLP126
10:00
V
0 °C 9 mi - 210° 210° 7 kt METAR CZVL 261700Z AUTO 21007KT 9SM FEW240 M00/M06 A2982 RMK SLP129
09:00
V
-1 °C 9 mi 19.000 ft 210° 210° 8 kt METAR CZVL 261600Z AUTO 21008KT 9SM SCT170 BKN190 M01/M07 A2984 RMK SLP135
08:00
V
-1 °C 9 mi - 220° 220° 5 kt METAR CZVL 261500Z AUTO 22005KT 9SM SCT066 M01/M06 A2985 RMK SLP139
07:00
V
1 °C 9 mi 7.600 ft 210° 210° 9 kt METAR CZVL 261400Z AUTO 21009KT 9SM OVC076 01/M06 A2985 RMK SLP138
06:00
V
0 °C 9 mi 8.600 ft 230° 230° 10 kt METAR CZVL 261300Z AUTO 23010KT 9SM OVC086 00/M06 A2985 RMK SLP138
05:00
V
-1 °C 9 mi 8.100 ft 200° 200° 7 kt METAR CZVL 261200Z AUTO 20007KT 9SM OVC081 M01/M05 A2985 RMK SLP140
04:00
V
1 °C 9 mi 7.600 ft 260° 260° 6 kt METAR CZVL 261100Z AUTO 26006KT 9SM OVC076 01/M06 A2986 RMK SLP139
03:00
V
-2 °C 9 mi - 240° 240° 6 kt METAR CZVL 261000Z AUTO 24006KT 9SM CLR M02/M07 A2986 RMK SLP142

Noi e le terze parti seguiamo il tuo comportamento su internet con i cookie. Se continui, riteniamo che tu sia d'accordo con la nostra Politica sui cookie.